Time;durP1;ratioP1;P1;durP2;ratioP2;P2;SDS_P1;SDS_P2;PMS_P1;PMS_P2;Temp;Humidity;BMP_temperature;BMP_pressure;BME280_temperature;BME280_humidity;BME280_pressure;Samples;Min_cycle;Max_cycle;Signal;HPM_P1;HPM_P2
2023/04/20 00:02:14;;;;;;;10.90;7.17;;;;;;;8.63;91.88;100179.52;1424108;90;22403;-78
2023/04/20 00:04:40;;;;;;;12.03;7.17;;;;;;;8.65;91.29;100180.69;1489191;87;21463;-79
2023/04/20 00:07:06;;;;;;;14.23;8.87;;;;;;;8.63;91.50;100176.89;1497829;86;21368;-77
2023/04/20 00:09:32;;;;;;;12.17;8.33;;;;;;;8.57;92.34;100178.28;1494345;87;21519;-79
2023/04/20 00:11:59;;;;;;;10.23;8.40;;;;;;;8.55;92.36;100176.27;1491188;86;22144;-77
2023/04/20 00:14:25;;;;;;;11.47;7.43;;;;;;;8.54;92.50;100179.02;1485705;86;21345;-78
2023/04/20 00:16:51;;;;;;;11.00;8.43;;;;;;;8.49;92.99;100176.83;1488368;87;21566;-78
2023/04/20 00:19:19;;;;;;;13.67;7.93;;;;;;;8.49;92.49;100170.73;1492192;87;22247;-79
2023/04/20 00:21:47;;;;;;;11.00;8.13;;;;;;;8.47;92.76;100168.22;1497768;87;22225;-79
2023/04/20 00:24:13;;;;;;;12.03;9.00;;;;;;;8.48;91.26;100166.41;1493563;87;21482;-79
2023/04/20 00:26:40;;;;;;;15.33;9.03;;;;;;;8.46;91.71;100174.47;1497163;87;21331;-79
2023/04/20 00:29:06;;;;;;;13.17;8.63;;;;;;;8.45;92.15;100169.33;1493318;87;22447;-79
2023/04/20 00:31:32;;;;;;;12.00;8.37;;;;;;;8.41;92.01;100172.73;1496339;87;21383;-78
2023/04/20 00:33:58;;;;;;;11.93;8.23;;;;;;;8.40;91.79;100166.27;1494177;87;21389;-80
2023/04/20 00:36:25;;;;;;;12.60;7.43;;;;;;;8.36;90.90;100166.52;1492650;87;22313;-80
2023/04/20 00:38:52;;;;;;;9.90;7.60;;;;;;;8.30;92.55;100160.98;1492445;86;21463;-79
2023/04/20 00:41:18;;;;;;;11.50;8.67;;;;;;;8.26;92.33;100158.28;1480866;87;21359;-79
2023/04/20 00:43:53;;;;;;;12.07;7.80;;;;;;;8.22;91.86;100160.83;1475128;87;21516;-80
2023/04/20 00:46:21;;;;;;;10.60;7.90;;;;;;;8.16;93.20;100161.39;1488627;87;21405;-80
2023/04/20 00:48:52;;;;;;;12.83;8.30;;;;;;;8.11;93.51;100163.97;1484072;87;21427;-80
2023/04/20 00:51:21;;;;;;;15.00;9.93;;;;;;;8.08;93.41;100168.17;1493087;87;22566;-80
2023/04/20 00:53:48;;;;;;;11.30;8.57;;;;;;;8.07;93.43;100167.84;1495507;86;22268;-79
2023/04/20 00:56:15;;;;;;;17.43;8.83;;;;;;;8.04;94.04;100163.33;1494718;87;21552;-79
2023/04/20 00:58:42;;;;;;;12.37;9.17;;;;;;;8.03;93.82;100169.59;1488791;87;21367;-79
2023/04/20 01:01:11;;;;;;;12.90;9.47;;;;;;;7.95;95.53;100170.26;1500772;87;21471;-79
2023/04/20 01:03:38;;;;;;;15.27;9.23;;;;;;;7.95;94.69;100172.06;1483422;87;22379;-79
2023/04/20 01:06:06;;;;;;;14.00;8.30;;;;;;;7.94;95.67;100166.43;1492668;86;21315;-79
2023/04/20 01:08:32;;;;;;;10.97;8.20;;;;;;;7.90;96.59;100165.39;1496808;87;21463;-80
2023/04/20 01:10:59;;;;;;;13.60;8.73;;;;;;;7.90;97.04;100159.29;1497660;87;22498;-79
2023/04/20 01:13:25;;;;;;;16.10;8.87;;;;;;;7.91;97.17;100162.27;1494953;86;21353;-78
2023/04/20 01:15:52;;;;;;;15.20;7.90;;;;;;;7.93;96.62;100160.82;1494270;86;21353;-79
2023/04/20 01:18:18;;;;;;;12.60;8.87;;;;;;;7.90;97.19;100161.92;1489655;86;21522;-80
2023/04/20 01:20:46;;;;;;;18.07;9.93;;;;;;;7.87;97.84;100162.20;1490682;86;21338;-79
2023/04/20 01:23:12;;;;;;;14.10;9.23;;;;;;;7.86;97.56;100161.38;1492970;87;21367;-79
2023/04/20 01:25:39;;;;;;;16.00;8.83;;;;;;;7.83;98.26;100164.77;1496671;87;21538;-79
2023/04/20 01:28:05;;;;;;;14.80;9.57;;;;;;;7.83;97.86;100159.02;1493762;86;22209;-80
2023/04/20 01:30:31;;;;;;;13.07;9.00;;;;;;;7.84;97.79;100157.20;1494963;87;21464;-79
2023/04/20 01:32:57;;;;;;;12.33;10.23;;;;;;;7.84;97.51;100159.35;1501598;86;21339;-79
2023/04/20 01:35:25;;;;;;;14.57;9.50;;;;;;;7.82;98.59;100157.33;1492194;87;21434;-79
2023/04/20 01:37:51;;;;;;;16.50;10.03;;;;;;;7.83;97.80;100166.09;1496077;87;21427;-79
2023/04/20 01:40:18;;;;;;;11.47;8.10;;;;;;;7.82;97.16;100161.77;1491517;87;21390;-79
2023/04/20 01:42:44;;;;;;;13.60;8.93;;;;;;;7.81;98.32;100161.43;1487655;86;21559;-80
2023/04/20 01:45:10;;;;;;;13.20;9.23;;;;;;;7.81;97.32;100166.21;1492581;86;21471;-81
2023/04/20 01:47:36;;;;;;;16.10;10.43;;;;;;;7.81;97.24;100166.21;1498598;87;21420;-79
2023/04/20 01:50:03;;;;;;;16.87;10.70;;;;;;;7.79;97.33;100168.63;1497187;87;21402;-80
2023/04/20 01:52:29;;;;;;;15.00;8.80;;;;;;;7.75;97.71;100166.76;1490862;87;22432;-79
2023/04/20 01:54:55;;;;;;;16.27;9.87;;;;;;;7.75;97.06;100164.61;1499308;87;21921;-78
2023/04/20 01:57:21;;;;;;;15.00;8.57;;;;;;;7.71;98.19;100167.16;1489218;87;21345;-79
2023/04/20 01:59:48;;;;;;;15.40;9.60;;;;;;;7.66;98.97;100159.19;1488717;87;21523;-78
2023/04/20 02:02:14;;;;;;;14.10;9.13;;;;;;;7.67;99.36;100165.28;1493519;86;21463;-79
2023/04/20 02:04:40;;;;;;;12.70;9.43;;;;;;;7.66;98.42;100167.09;1495161;86;21345;-79
2023/04/20 02:07:06;;;;;;;13.77;10.03;;;;;;;7.64;98.53;100161.11;1491237;86;21559;-79
2023/04/20 02:09:32;;;;;;;18.77;10.97;;;;;;;7.61;99.20;100161.88;1491935;86;21375;-79
2023/04/20 02:11:58;;;;;;;15.67;10.93;;;;;;;7.60;99.09;100160.22;1496129;87;22078;-79
2023/04/20 02:14:24;;;;;;;16.53;10.30;;;;;;;7.57;100.00;100163.13;1487337;86;21345;-79
2023/04/20 02:16:52;;;;;;;14.17;10.00;;;;;;;7.55;100.00;100161.92;1494564;86;22461;-79
2023/04/20 02:19:18;;;;;;;13.00;9.83;;;;;;;7.52;100.00;100159.56;1492160;87;21301;-79
2023/04/20 02:21:45;;;;;;;14.50;10.20;;;;;;;7.55;100.00;100163.25;1487093;87;21590;-79
2023/04/20 02:24:11;;;;;;;19.40;10.27;;;;;;;7.53;100.00;100161.22;1488048;86;21375;-79
2023/04/20 02:26:37;;;;;;;15.87;10.10;;;;;;;7.53;100.00;100161.70;1492028;87;21316;-78
2023/04/20 02:29:03;;;;;;;16.20;11.30;;;;;;;7.47;100.00;100156.49;1478676;86;21405;-79
2023/04/20 02:31:30;;;;;;;26.13;10.17;;;;;;;7.48;100.00;100158.64;1494835;86;21405;-78
2023/04/20 02:33:56;;;;;;;19.53;10.10;;;;;;;7.48;100.00;100153.38;1487865;87;21508;-78
2023/04/20 02:36:22;;;;;;;14.53;10.13;;;;;;;7.49;100.00;100161.16;1493699;87;21472;-78
2023/04/20 02:38:49;;;;;;;15.97;10.03;;;;;;;7.49;100.00;100155.88;1493608;86;21559;-78
2023/04/20 02:41:15;;;;;;;18.80;11.43;;;;;;;7.49;100.00;100162.47;1495943;87;22439;-78
2023/04/20 02:43:41;;;;;;;16.20;11.07;;;;;;;7.49;100.00;100152.42;1497517;87;21507;-79
2023/04/20 02:46:07;;;;;;;15.30;10.13;;;;;;;7.46;100.00;100156.16;1487223;87;21367;-80
2023/04/20 02:48:33;;;;;;;17.57;11.20;;;;;;;7.44;100.00;100153.64;1491829;87;21496;-79
2023/04/20 02:51:00;;;;;;;16.13;10.70;;;;;;;7.45;100.00;100153.16;1493120;86;21419;-79
2023/04/20 02:53:26;;;;;;;15.00;9.87;;;;;;;7.48;100.00;100154.69;1495418;87;21509;-79
2023/04/20 02:55:52;;;;;;;16.77;11.27;;;;;;;7.50;100.00;100152.77;1492641;86;21411;-80
2023/04/20 02:58:18;;;;;;;17.00;10.83;;;;;;;7.49;100.00;100157.20;1483072;87;21559;-80
2023/04/20 03:00:45;;;;;;;18.37;11.63;;;;;;;7.52;100.00;100158.25;1497131;87;21286;-80
2023/04/20 03:03:11;;;;;;;15.87;11.83;;;;;;;7.54;100.00;100156.33;1488980;86;21523;-80
2023/04/20 03:05:37;;;;;;;14.43;10.53;;;;;;;7.54;100.00;100157.64;1498059;87;21331;-80
2023/04/20 03:08:05;;;;;;;20.63;11.63;;;;;;;7.54;100.00;100158.95;1495394;87;21537;-80
2023/04/20 03:10:32;;;;;;;16.83;12.77;;;;;;;7.55;100.00;100157.15;1484897;87;21331;-80
2023/04/20 03:12:58;;;;;;;15.07;11.87;;;;;;;7.59;100.00;100155.41;1496184;87;21570;-78
2023/04/20 03:15:24;;;;;;;14.63;10.63;;;;;;;7.61;100.00;100155.29;1468565;87;22349;-80
2023/04/20 03:17:51;;;;;;;19.43;13.10;;;;;;;7.61;100.00;100149.53;1490592;86;22434;-80
2023/04/20 03:20:18;;;;;;;17.53;10.67;;;;;;;7.61;100.00;100152.16;1485936;87;21308;-80
2023/04/20 03:22:45;;;;;;;16.80;10.13;;;;;;;7.61;100.00;100153.97;1485251;86;21434;-80
2023/04/20 03:25:11;;;;;;;14.27;10.57;;;;;;;7.62;100.00;100153.85;1471853;87;21434;-80
2023/04/20 03:27:37;;;;;;;16.47;11.57;;;;;;;7.63;100.00;100156.83;1490279;86;21453;-80
2023/04/20 03:30:06;;;;;;;20.53;11.43;;;;;;;7.65;100.00;100154.89;1436739;90;21406;-80
2023/04/20 03:32:32;;;;;;;19.20;11.70;;;;;;;7.65;100.00;100160.16;1494505;86;21412;-80
2023/04/20 03:34:58;;;;;;;14.03;10.07;;;;;;;7.65;100.00;100156.22;1487151;86;21449;-80
2023/04/20 03:37:24;;;;;;;18.57;10.37;;;;;;;7.64;100.00;100162.43;1493195;86;21974;-81
2023/04/20 03:39:51;;;;;;;17.23;10.90;;;;;;;7.69;100.00;100162.86;1493710;86;21603;-80
2023/04/20 03:42:18;;;;;;;14.87;9.93;;;;;;;7.68;100.00;100163.84;1484097;87;21346;-80
2023/04/20 03:44:44;;;;;;;15.90;9.10;;;;;;;7.71;100.00;100165.83;1500333;87;21523;-80
2023/04/20 03:47:10;;;;;;;14.80;10.23;;;;;;;7.69;100.00;100166.81;1481856;87;21434;-79
2023/04/20 03:49:36;;;;;;;15.17;9.97;;;;;;;7.67;100.00;100161.33;1490836;87;22371;-80
2023/04/20 03:52:03;;;;;;;13.33;10.70;;;;;;;7.68;100.00;100163.84;1492139;87;21405;-79
2023/04/20 03:54:29;;;;;;;14.03;10.30;;;;;;;7.69;100.00;100164.67;1498415;86;21323;-79
2023/04/20 03:56:57;;;;;;;16.80;10.47;;;;;;;7.68;100.00;100168.25;1488748;87;22181;-80
2023/04/20 03:59:23;;;;;;;14.47;9.93;;;;;;;7.73;100.00;100174.45;1487125;86;21515;-80
2023/04/20 04:01:50;;;;;;;15.20;10.50;;;;;;;7.69;100.00;100169.45;1498467;86;22300;-80
2023/04/20 04:04:16;;;;;;;15.10;10.17;;;;;;;7.72;100.00;100171.47;1493023;86;21515;-80
2023/04/20 04:06:43;;;;;;;14.23;9.93;;;;;;;7.76;100.00;100176.81;1491554;87;21427;-80
2023/04/20 04:09:09;;;;;;;13.67;8.90;;;;;;;7.72;100.00;100170.16;1494351;86;21522;-80
2023/04/20 04:11:35;;;;;;;13.93;9.90;;;;;;;7.69;100.00;100181.80;1494452;87;21397;-81
2023/04/20 04:14:03;;;;;;;13.67;10.03;;;;;;;7.76;100.00;100180.76;1497521;87;21519;-81
2023/04/20 04:16:31;;;;;;;15.70;10.90;;;;;;;7.71;100.00;100189.55;1444310;89;21494;-80
2023/04/20 04:18:57;;;;;;;23.07;11.43;;;;;;;7.73;100.00;100181.86;1490699;87;21339;-81
2023/04/20 04:21:23;;;;;;;15.30;10.50;;;;;;;7.72;100.00;100182.02;1484620;86;21530;-81
2023/04/20 04:23:50;;;;;;;14.70;9.67;;;;;;;7.76;100.00;100187.34;1494791;87;21352;-81
2023/04/20 04:26:23;;;;;;;17.70;11.47;;;;;;;7.76;100.00;100182.91;1494731;86;21338;-81
2023/04/20 04:28:50;;;;;;;14.50;9.73;;;;;;;7.84;100.00;100190.14;1484782;87;21479;-81
2023/04/20 04:31:18;;;;;;;16.97;10.90;;;;;;;7.87;100.00;100185.91;1420426;90;21420;-82
2023/04/20 04:33:45;;;;;;;15.83;10.03;;;;;;;7.89;100.00;100190.57;1471997;86;21382;-81
2023/04/20 04:36:14;;;;;;;12.80;9.47;;;;;;;7.88;100.00;100188.89;1493190;87;21367;-82
2023/04/20 04:38:43;;;;;;;13.03;9.80;;;;;;;7.97;99.87;100189.41;1433137;90;21391;-83
2023/04/20 04:41:11;;;;;;;13.80;9.87;;;;;;;8.04;99.50;100191.83;1491753;87;21515;-83
2023/04/20 04:43:41;;;;;;;18.40;8.90;;;;;;;8.12;99.13;100197.75;1488669;87;21399;-83
2023/04/20 04:46:09;;;;;;;19.82;10.53;;;;;;;8.20;98.65;100194.41;1498620;86;21353;-79
2023/04/20 04:48:39;;;;;;;16.57;9.87;;;;;;;8.23;98.32;100191.48;1490241;87;21534;-80
2023/04/20 04:51:05;;;;;;;14.58;9.35;;;;;;;8.31;98.30;100193.78;1498533;87;21428;-81
2023/04/20 04:53:33;;;;;;;16.27;9.23;;;;;;;8.36;97.86;100195.52;1475217;87;21544;-81
2023/04/20 04:56:00;;;;;;;14.13;10.80;;;;;;;8.42;97.84;100200.76;1500682;87;21345;-80
2023/04/20 04:58:26;;;;;;;13.27;9.10;;;;;;;8.47;97.22;100200.36;1490996;87;21581;-80
2023/04/20 05:00:52;;;;;;;15.37;9.67;;;;;;;8.53;97.33;100199.79;1493584;86;21331;-81
2023/04/20 05:03:18;;;;;;;11.80;9.43;;;;;;;8.63;97.19;100203.27;1491385;87;22276;-81
2023/04/20 05:05:45;;;;;;;17.03;10.23;;;;;;;8.66;96.28;100202.13;1487586;86;21485;-82
2023/04/20 05:08:11;;;;;;;11.07;8.30;;;;;;;8.74;95.80;100213.64;1495198;86;21316;-81
2023/04/20 05:10:38;;;;;;;16.10;9.97;;;;;;;8.85;95.65;100213.98;1480308;87;22823;-81
2023/04/20 05:13:04;;;;;;;16.83;9.67;;;;;;;8.92;94.69;100220.37;1493734;86;21482;-81
2023/04/20 05:15:30;;;;;;;14.13;9.73;;;;;;;9.01;94.52;100214.23;1488536;87;21383;-80
2023/04/20 05:17:56;;;;;;;18.07;10.23;;;;;;;9.11;94.54;100216.84;1486889;87;22387;-82
2023/04/20 05:20:23;;;;;;;13.77;8.67;;;;;;;9.19;93.85;100224.05;1490678;86;21338;-80
2023/04/20 05:22:49;;;;;;;18.23;8.83;;;;;;;9.30;93.76;100218.60;1492576;87;21442;-79
2023/04/20 05:25:15;;;;;;;20.43;10.37;;;;;;;9.44;92.81;100213.34;1492799;87;21526;-79
2023/04/20 05:27:41;;;;;;;16.93;10.23;;;;;;;9.54;92.25;100217.25;1489901;86;21814;-77
2023/04/20 05:30:08;;;;;;;13.33;9.07;;;;;;;9.62;91.51;100214.72;1496286;86;21346;-78
2023/04/20 05:32:34;;;;;;;11.00;7.97;;;;;;;9.67;90.74;100215.11;1488374;87;22231;-80
2023/04/20 05:35:00;;;;;;;14.10;8.43;;;;;;;9.70;89.53;100220.93;1492284;87;21316;-81
2023/04/20 05:37:26;;;;;;;14.87;8.70;;;;;;;9.85;89.63;100220.44;1495111;87;21382;-81
2023/04/20 05:39:53;;;;;;;14.60;9.50;;;;;;;9.97;89.31;100221.89;1480797;87;21374;-80
2023/04/20 05:42:19;;;;;;;15.13;9.63;;;;;;;9.96;87.63;100229.48;1489301;86;21383;-78
2023/04/20 05:44:45;;;;;;;16.70;8.60;;;;;;;10.04;87.34;100226.94;1486859;87;21433;-80
2023/04/20 05:47:11;;;;;;;15.87;8.17;;;;;;;10.18;88.21;100229.53;1492278;86;21397;-79
2023/04/20 05:49:37;;;;;;;13.20;7.67;;;;;;;10.25;86.04;100225.33;1492933;87;21294;-80
2023/04/20 05:52:03;;;;;;;15.13;7.50;;;;;;;10.45;86.88;100233.98;1470075;87;21603;-79
2023/04/20 05:54:30;;;;;;;18.33;8.80;;;;;;;10.61;86.84;100234.59;1494079;87;21596;-80
2023/04/20 05:56:59;;;;;;;11.60;7.20;;;;;;;10.73;84.72;100236.05;1486090;86;22133;-79
2023/04/20 05:59:26;;;;;;;16.77;9.23;;;;;;;10.91;84.05;100232.04;1494731;86;22284;-79
2023/04/20 06:01:52;;;;;;;15.03;7.03;;;;;;;11.06;84.69;100241.08;1489439;87;21643;-79
2023/04/20 06:04:18;;;;;;;11.73;7.77;;;;;;;11.19;83.32;100235.38;1491393;87;21828;-79
2023/04/20 06:06:44;;;;;;;10.90;7.70;;;;;;;11.26;81.50;100235.08;1489426;87;21353;-80
2023/04/20 06:09:10;;;;;;;13.30;6.33;;;;;;;11.38;81.15;100240.11;1489744;87;21381;-80
2023/04/20 06:11:37;;;;;;;11.53;7.20;;;;;;;11.44;79.61;100238.16;1492352;86;21871;-81
2023/04/20 06:14:03;;;;;;;14.10;6.60;;;;;;;11.53;79.62;100237.20;1478715;87;21411;-77
2023/04/20 06:16:29;;;;;;;13.43;5.97;;;;;;;11.50;78.22;100242.81;1490369;87;21441;-82
2023/04/20 06:18:55;;;;;;;9.53;5.80;;;;;;;11.57;78.28;100239.06;1496377;86;21486;-81
2023/04/20 06:21:26;;;;;;;9.53;6.27;;;;;;;11.65;77.86;100245.23;1489543;87;21625;-79
2023/04/20 06:23:52;;;;;;;16.23;7.57;;;;;;;11.56;76.92;100242.18;1491687;86;21389;-81
2023/04/20 06:26:19;;;;;;;15.00;8.10;;;;;;;11.71;78.16;100240.61;1490387;87;21330;-81
2023/04/20 06:28:47;;;;;;;14.03;7.80;;;;;;;11.82;77.35;100243.95;1489233;86;21456;-81
2023/04/20 06:31:13;;;;;;;14.23;6.80;;;;;;;11.86;76.76;100239.54;1497331;86;21352;-81
2023/04/20 06:33:39;;;;;;;12.80;6.63;;;;;;;11.88;76.33;100245.98;1493009;87;21338;-80
2023/04/20 06:36:07;;;;;;;9.83;6.37;;;;;;;11.90;75.87;100249.32;1476178;87;21353;-81
2023/04/20 06:38:33;;;;;;;11.73;6.03;;;;;;;11.93;76.08;100239.72;1576939;86;22322;-81
2023/04/20 06:41:01;;;;;;;14.17;6.10;;;;;;;12.04;75.26;100239.92;1415186;87;21220;-80
2023/04/20 06:43:29;;;;;;;12.60;5.50;;;;;;;12.20;75.62;100239.97;1458318;87;21512;-81
2023/04/20 06:45:55;;;;;;;8.73;5.50;;;;;;;12.33;73.91;100242.14;1488753;86;21333;-80
2023/04/20 06:48:21;;;;;;;13.50;5.40;;;;;;;12.34;72.67;100244.64;1493681;87;22392;-80
2023/04/20 06:50:49;;;;;;;9.30;6.07;;;;;;;12.49;73.34;100251.96;1494595;87;21250;-81
2023/04/20 06:53:16;;;;;;;12.67;6.57;;;;;;;12.61;73.38;100246.16;1483929;87;21626;-81
2023/04/20 06:59:43;;;;;;;9.70;5.25;;;;;;;12.74;72.23;100247.48;1493393;87;21471;-80
2023/04/20 07:02:09;;;;;;;11.87;5.60;;;;;;;12.81;71.03;100248.48;1489182;87;21398;-80
2023/04/20 07:04:35;;;;;;;13.73;7.23;;;;;;;12.85;71.84;100243.98;1487712;86;21390;-81
2023/04/20 07:07:02;;;;;;;8.53;6.17;;;;;;;12.99;71.84;100245.14;1495364;86;21352;-81
2023/04/20 07:09:28;;;;;;;10.40;5.93;;;;;;;13.09;71.82;100247.14;1500119;87;21359;-80
2023/04/20 07:11:55;;;;;;;14.20;6.40;;;;;;;13.07;69.87;100249.12;1496938;86;22550;-81
2023/04/20 07:14:37;;;;;;;9.37;6.10;;;;;;;13.07;69.66;100247.80;1491800;86;21390;-80
2023/04/20 07:17:03;;;;;;;10.87;5.60;;;;;;;13.13;70.71;100249.45;1494940;86;21501;-79
2023/04/20 07:19:31;;;;;;;11.87;5.90;;;;;;;13.16;69.50;100243.80;1497379;86;21537;-81
2023/04/20 07:21:57;;;;;;;17.10;7.13;;;;;;;13.27;70.41;100240.32;1485727;86;22240;-80
2023/04/20 07:24:23;;;;;;;13.70;6.13;;;;;;;13.49;71.27;100240.58;1480927;87;21440;-80
2023/04/20 07:26:50;;;;;;;13.63;6.07;;;;;;;13.63;69.27;100247.02;1488266;87;21272;-81
2023/04/20 07:29:16;;;;;;;11.27;6.17;;;;;;;13.71;69.13;100245.66;1487711;86;21317;-81
2023/04/20 07:31:43;;;;;;;16.00;5.20;;;;;;;13.76;68.65;100249.98;1490503;87;21962;-81
2023/04/20 07:34:10;;;;;;;20.87;7.30;;;;;;;13.92;69.45;100255.70;1493781;87;22431;-81
2023/04/20 07:36:37;;;;;;;19.87;5.43;;;;;;;14.16;69.67;100248.95;1492392;87;22020;-80
2023/04/20 07:39:04;;;;;;;16.00;7.57;;;;;;;14.33;67.72;100251.02;1495549;86;21515;-80
2023/04/20 07:41:30;;;;;;;14.77;6.10;;;;;;;14.38;66.74;100248.62;1493206;86;22352;-80
2023/04/20 07:43:56;;;;;;;11.73;5.60;;;;;;;14.36;66.15;100249.84;1496191;86;21450;-81
2023/04/20 07:46:23;;;;;;;7.83;6.03;;;;;;;14.37;65.83;100252.30;1490023;86;21330;-80
2023/04/20 07:48:50;;;;;;;9.00;5.40;;;;;;;14.49;65.35;100246.57;1489173;87;21581;-81
2023/04/20 07:51:16;;;;;;;7.47;5.03;;;;;;;14.51;66.00;100252.55;1479127;87;21457;-80
2023/04/20 07:53:43;;;;;;;14.20;6.27;;;;;;;14.53;65.84;100237.23;1467390;87;21955;-81
2023/04/20 07:56:10;;;;;;;17.60;12.10;;;;;;;14.63;65.14;100249.83;1487238;87;21375;-81
2023/04/20 07:58:37;;;;;;;15.93;8.77;;;;;;;14.75;65.65;100243.57;1486789;86;22410;-79
2023/04/20 08:01:06;;;;;;;8.17;5.33;;;;;;;14.98;65.04;100255.02;1488014;86;21486;-79
2023/04/20 08:03:34;;;;;;;10.27;6.67;;;;;;;14.86;63.06;100249.30;1446003;90;21405;-80
2023/04/20 08:06:00;;;;;;;10.60;5.50;;;;;;;15.06;63.77;100244.80;1488208;87;21508;-78
2023/04/20 08:08:26;;;;;;;13.40;5.93;;;;;;;14.99;62.66;100241.19;1497982;86;22225;-78
2023/04/20 08:10:54;;;;;;;15.67;9.73;;;;;;;15.18;63.40;100244.67;1495846;87;21516;-78
2023/04/20 08:13:20;;;;;;;12.53;5.13;;;;;;;15.24;63.92;100247.94;1497596;87;21441;-78
2023/04/20 08:15:47;;;;;;;7.97;5.30;;;;;;;15.37;62.56;100237.17;1493116;86;21475;-79
2023/04/20 08:18:13;;;;;;;10.87;7.43;;;;;;;14.96;62.52;100240.22;1490879;87;21330;-79
2023/04/20 08:20:39;;;;;;;19.23;10.27;;;;;;;15.20;62.66;100237.33;1488371;87;22505;-78
2023/04/20 08:23:06;;;;;;;8.30;5.17;;;;;;;15.42;63.08;100239.61;1494371;87;21323;-78
2023/04/20 08:25:32;;;;;;;10.70;5.83;;;;;;;15.59;61.57;100240.22;1490306;86;21560;-79
2023/04/20 08:27:58;;;;;;;9.30;5.17;;;;;;;15.50;61.21;100237.33;1493192;87;21651;-78
2023/04/20 08:30:26;;;;;;;11.37;5.23;;;;;;;15.32;61.37;100237.70;1495176;87;21301;-80
2023/04/20 08:32:52;;;;;;;13.97;7.13;;;;;;;15.12;62.75;100238.73;1501091;86;21344;-80
2023/04/20 08:35:18;;;;;;;9.90;5.90;;;;;;;15.10;63.45;100239.42;1495811;87;22403;-79
2023/04/20 08:37:45;;;;;;;10.17;5.33;;;;;;;15.22;61.78;100241.13;1473618;87;21898;-80
2023/04/20 08:40:12;;;;;;;15.43;5.93;;;;;;;15.44;61.34;100235.41;1494566;87;21405;-81
2023/04/20 08:42:39;;;;;;;9.40;5.47;;;;;;;15.70;61.92;100239.79;1501089;87;21367;-80
2023/04/20 08:45:06;;;;;;;9.77;5.30;;;;;;;16.06;59.90;100229.67;1495677;87;22295;-81
2023/04/20 08:47:33;;;;;;;13.80;5.90;;;;;;;16.08;58.72;100232.13;1494829;87;21434;-84
2023/04/20 08:50:01;;;;;;;11.50;6.07;;;;;;;16.06;58.89;100239.01;1495660;87;22402;-83
2023/04/20 08:52:28;;;;;;;8.57;5.17;;;;;;;16.39;60.00;100226.52;1495677;87;22454;-83
2023/04/20 08:54:54;;;;;;;8.60;5.27;;;;;;;16.61;59.09;100230.84;1487900;87;21353;-83
2023/04/20 08:57:20;;;;;;;7.23;5.80;;;;;;;16.59;57.21;100222.18;1492190;86;21541;-81
2023/04/20 08:59:47;;;;;;;15.73;6.80;;;;;;;16.80;58.93;100225.88;1496227;87;22268;-81
2023/04/20 09:02:14;;;;;;;14.47;6.23;;;;;;;17.05;58.36;100219.60;1485000;87;21367;-80
2023/04/20 09:04:41;;;;;;;18.60;6.80;;;;;;;17.22;57.64;100214.27;1497726;87;21529;-80
2023/04/20 09:07:20;;;;;;;10.87;5.93;;;;;;;17.29;57.84;100223.66;1486193;87;21339;-80
2023/04/20 09:09:56;;;;;;;10.13;4.77;;;;;;;17.39;56.04;100209.44;1506647;87;21388;-80
2023/04/20 09:12:23;;;;;;;10.27;5.97;;;;;;;16.91;57.20;100215.48;1487550;86;21368;-80
2023/04/20 09:14:50;;;;;;;15.53;6.20;;;;;;;16.89;57.62;100213.54;1490056;87;21553;-80
2023/04/20 09:17:20;;;;;;;13.07;5.70;;;;;;;16.72;57.75;100223.34;1490466;87;21404;-80
2023/04/20 09:19:53;;;;;;;17.70;6.13;;;;;;;16.54;56.73;100227.78;1490340;87;21611;-80
2023/04/20 09:22:33;;;;;;;10.57;5.87;;;;;;;16.38;58.97;100228.36;1492515;87;21360;-80
2023/04/20 09:25:02;;;;;;;15.48;5.15;;;;;;;16.81;58.58;100223.55;1488269;87;21448;-80
2023/04/20 09:27:28;;;;;;;8.80;4.40;;;;;;;17.16;57.18;100219.58;1485340;87;21513;-80
2023/04/20 09:30:00;;;;;;;8.77;4.70;;;;;;;16.77;56.10;100219.59;1501021;86;21539;-80
2023/04/20 09:32:27;;;;;;;11.13;4.83;;;;;;;16.76;55.64;100215.23;1493405;87;21309;-80
2023/04/20 09:34:54;;;;;;;10.20;5.20;;;;;;;16.91;56.24;100220.01;1492303;87;22314;-80
2023/04/20 09:37:21;;;;;;;13.87;6.50;;;;;;;17.13;56.84;100219.46;1497357;87;21574;-80
2023/04/20 09:39:48;;;;;;;16.80;6.60;;;;;;;17.57;57.21;100215.08;1491710;86;21379;-79
2023/04/20 09:42:16;;;;;;;12.07;5.73;;;;;;;17.96;55.93;100210.14;1494503;86;21498;-80
2023/04/20 09:44:43;;;;;;;18.90;6.43;;;;;;;17.88;51.63;100216.48;1486823;86;21345;-79
2023/04/20 09:47:21;;;;;;;16.87;5.50;;;;;;;17.67;52.16;100215.24;1488569;87;21450;-80
2023/04/20 09:49:46;;;;;;;15.30;6.23;;;;;;;17.35;53.90;100212.20;1484940;87;22308;-80
2023/04/20 09:52:17;;;;;;;15.57;5.67;;;;;;;17.10;54.51;100213.17;1487330;86;21338;-80
2023/04/20 09:54:44;;;;;;;27.27;5.20;;;;;;;17.36;54.96;100205.81;1488611;86;21596;-79
2023/04/20 09:57:13;;;;;;;16.97;5.80;;;;;;;17.66;55.05;100210.37;1494810;86;22306;-80
2023/04/20 09:59:45;;;;;;;11.18;5.22;;;;;;;17.62;53.41;100205.64;1483604;87;21518;-79
2023/04/20 10:02:13;;;;;;;20.68;5.25;;;;;;;17.95;54.15;100210.66;1489384;86;21404;-80
2023/04/20 10:04:57;;;;;;;10.32;4.80;;;;;;;17.98;52.26;100207.57;1488875;87;22469;-80
2023/04/20 10:07:26;;;;;;;11.12;4.83;;;;;;;17.63;51.79;100206.77;1487007;86;21824;-79
2023/04/20 10:10:12;;;;;;;15.93;4.90;;;;;;;17.98;52.91;100213.41;1490603;87;21586;-80
2023/04/20 10:12:55;;;;;;;9.43;4.97;;;;;;;18.08;51.11;100202.34;1488868;86;22402;-79
2023/04/20 10:15:26;;;;;;;10.13;4.33;;;;;;;18.15;51.29;100195.12;1484823;87;21434;-80
2023/04/20 10:17:53;;;;;;;15.80;5.40;;;;;;;18.51;50.91;100192.63;1453484;90;22336;-79
2023/04/20 10:20:26;;;;;;;9.55;4.75;;;;;;;18.67;50.77;100199.75;1490678;86;21684;-79
2023/04/20 10:22:56;;;;;;;22.62;5.22;;;;;;;18.80;49.15;100199.46;1497107;87;21389;-79
2023/04/20 10:25:26;;;;;;;11.87;4.93;;;;;;;18.51;47.36;100188.61;1490364;87;21404;-80
2023/04/20 10:28:00;;;;;;;13.65;4.83;;;;;;;18.49;48.06;100196.31;1485048;87;21537;-79
2023/04/20 10:30:28;;;;;;;14.58;4.83;;;;;;;18.37;50.32;100191.27;1485979;87;21397;-80
2023/04/20 10:33:10;;;;;;;9.33;5.08;;;;;;;18.47;49.91;100187.67;1485371;87;21496;-80
2023/04/20 10:35:47;;;;;;;19.40;6.05;;;;;;;18.74;49.75;100194.41;1491723;87;21411;-80
2023/04/20 10:38:15;;;;;;;21.30;4.87;;;;;;;19.25;49.00;100191.54;1482753;87;22277;-80
2023/04/20 10:40:41;;;;;;;13.70;6.22;;;;;;;19.52;47.58;100190.96;1493873;86;21301;-82
2023/04/20 10:43:21;;;;;;;27.50;5.87;;;;;;;18.98;45.15;100193.45;1496556;86;21419;-80
2023/04/20 10:45:49;;;;;;;17.85;6.12;;;;;;;18.49;46.98;100186.12;1479584;87;21332;-79
2023/04/20 10:48:16;;;;;;;21.10;4.35;;;;;;;17.98;46.85;100190.66;1495684;87;21513;-79
2023/04/20 10:50:42;;;;;;;14.50;5.05;;;;;;;18.04;47.86;100190.70;1485697;86;21353;-81
2023/04/20 10:53:22;;;;;;;13.08;4.40;;;;;;;18.16;46.20;100181.55;1491436;86;21548;-79
2023/04/20 10:56:00;;;;;;;10.20;4.45;;;;;;;18.37;46.87;100183.22;1493905;87;21368;-80
2023/04/20 10:58:26;;;;;;;9.60;4.87;;;;;;;18.92;48.67;100191.09;1493617;87;21427;-80
2023/04/20 11:01:05;;;;;;;8.63;4.17;;;;;;;19.14;46.85;100183.64;1495952;86;21368;-79
2023/04/20 11:03:36;;;;;;;17.42;5.60;;;;;;;19.20;45.74;100179.30;1494142;87;22307;-79
2023/04/20 11:06:02;;;;;;;20.62;6.15;;;;;;;19.29;45.20;100188.77;1494824;87;22388;-80
2023/04/20 11:08:39;;;;;;;16.67;5.03;;;;;;;19.65;46.77;100176.19;1491298;86;21573;-80
2023/04/20 11:11:19;;;;;;;18.10;4.60;;;;;;;19.66;43.51;100181.86;1479838;87;21324;-80
2023/04/20 11:13:47;;;;;;;18.45;4.65;;;;;;;19.44;43.68;100176.44;1484178;87;22120;-80
2023/04/20 11:16:15;;;;;;;14.55;6.42;;;;;;;19.11;43.80;100181.38;1498372;87;22499;-80
2023/04/20 11:18:52;;;;;;;11.18;4.75;;;;;;;18.73;44.12;100172.63;1491770;87;21441;-80
2023/04/20 11:21:21;;;;;;;21.65;5.40;;;;;;;18.52;44.95;100180.86;1491226;86;21568;-79
2023/04/20 11:23:48;;;;;;;18.10;5.42;;;;;;;18.74;43.61;100173.48;1494502;87;21419;-80
2023/04/20 11:26:15;;;;;;;14.28;4.90;;;;;;;19.20;43.95;100177.44;1494925;86;21504;-79